createdAt,value
2022-12-23T00:02:37.322Z,9.07
2022-12-23T00:05:40.244Z,9.43
2022-12-23T00:08:44.494Z,9.35
2022-12-23T00:12:14.642Z,8.68
2022-12-23T00:15:16.460Z,8.80
2022-12-23T00:18:19.218Z,8.20
2022-12-23T00:21:21.868Z,9.20
2022-12-23T00:24:25.923Z,10.73
2022-12-23T00:27:32.835Z,7.38
2022-12-23T00:30:38.784Z,11.32
2022-12-23T00:33:42.394Z,8.07
2022-12-23T00:36:45.079Z,8.82
2022-12-23T00:40:09.763Z,8.27
2022-12-23T00:43:12.413Z,8.18
2022-12-23T00:46:15.101Z,7.65
2022-12-23T00:49:36.233Z,7.57
2022-12-23T00:52:38.890Z,8.75
2022-12-23T00:55:43.155Z,9.18
2022-12-23T00:58:45.831Z,8.50
2022-12-23T01:02:06.135Z,9.57
2022-12-23T01:05:37.325Z,9.00
2022-12-23T01:08:39.947Z,9.77
2022-12-23T01:11:46.884Z,6.55
2022-12-23T01:14:49.578Z,6.88
2022-12-23T01:17:52.160Z,6.57
2022-12-23T01:20:54.822Z,5.18
2022-12-23T01:23:57.491Z,6.72
2022-12-23T01:27:01.657Z,4.35
2022-12-23T01:30:04.525Z,4.15
2022-12-23T01:33:07.241Z,4.80
2022-12-23T01:36:10.964Z,5.20
2022-12-23T01:39:13.598Z,5.25
2022-12-23T01:42:36.964Z,4.47
2022-12-23T01:45:41.980Z,5.15
2022-12-23T01:48:45.820Z,5.72
2022-12-23T01:51:48.401Z,6.35
2022-12-23T01:54:51.044Z,5.60
2022-12-23T01:57:55.400Z,7.03
2022-12-23T02:01:15.790Z,6.70
2022-12-23T02:04:20.507Z,7.07
2022-12-23T02:07:40.785Z,6.65
2022-12-23T02:11:09.957Z,7.28
2022-12-23T02:14:37.892Z,7.20
2022-12-23T02:17:44.807Z,6.35
2022-12-23T02:21:02.812Z,7.38
2022-12-23T02:24:20.793Z,9.23
2022-12-23T02:27:28.482Z,8.20
2022-12-23T02:30:44.045Z,8.80
2022-12-23T02:33:50.400Z,7.53
2022-12-23T02:36:55.191Z,6.80
2022-12-23T02:39:59.532Z,7.65
2022-12-23T02:43:05.365Z,8.48
2022-12-23T02:46:11.867Z,7.25
2022-12-23T02:49:15.913Z,9.07
2022-12-23T02:52:19.364Z,7.65
2022-12-23T02:55:24.178Z,7.45
2022-12-23T02:58:28.597Z,7.47
2022-12-23T03:01:33.074Z,6.43
2022-12-23T03:04:38.209Z,6.50
2022-12-23T03:07:42.681Z,6.55
2022-12-23T03:10:53.151Z,7.07
2022-12-23T03:14:21.662Z,6.22
2022-12-23T03:17:36.804Z,7.32
2022-12-23T03:20:42.883Z,7.88
2022-12-23T03:23:51.978Z,7.93
2022-12-23T03:27:00.730Z,7.22
2022-12-23T03:30:04.976Z,6.03
2022-12-23T03:33:14.680Z,5.05
2022-12-23T03:36:18.813Z,4.60
2022-12-23T03:39:23.041Z,6.03
2022-12-23T03:42:27.247Z,5.85
2022-12-23T03:45:40.289Z,5.53
2022-12-23T03:48:46.309Z,6.47
2022-12-23T03:51:51.804Z,5.90
2022-12-23T03:54:55.389Z,6.57
2022-12-23T03:58:01.044Z,6.47
2022-12-23T04:01:06.836Z,7.60
2022-12-23T04:04:12.415Z,8.02
2022-12-23T04:07:17.523Z,8.05
2022-12-23T04:10:21.192Z,6.75
2022-12-23T04:13:26.492Z,6.82
2022-12-23T04:16:29.183Z,7.43
2022-12-23T04:19:33.368Z,7.18
2022-12-23T04:22:36.059Z,6.00
2022-12-23T04:25:38.828Z,5.80
2022-12-23T04:28:43.969Z,6.75
2022-12-23T04:31:46.762Z,6.50
2022-12-23T04:34:50.864Z,6.28
2022-12-23T04:37:53.551Z,5.88
2022-12-23T04:40:56.164Z,6.70
2022-12-23T04:43:58.893Z,6.50
2022-12-23T04:47:01.649Z,7.93
2022-12-23T04:50:06.752Z,7.30
2022-12-23T04:53:09.553Z,6.97
2022-12-23T04:56:12.184Z,6.53
2022-12-23T04:59:14.905Z,7.15
2022-12-23T05:02:17.618Z,7.80
2022-12-23T05:05:21.688Z,7.53
2022-12-23T05:08:24.435Z,7.43
2022-12-23T05:11:27.086Z,7.53
2022-12-23T05:14:29.818Z,7.93
2022-12-23T05:17:32.458Z,9.13
2022-12-23T05:20:36.462Z,8.10
2022-12-23T05:23:39.495Z,7.22
2022-12-23T05:26:47.608Z,7.63
2022-12-23T05:29:50.595Z,8.70
2022-12-23T05:32:54.189Z,8.65
2022-12-23T05:35:58.291Z,7.68
2022-12-23T05:39:01.089Z,7.05
2022-12-23T05:42:03.766Z,7.93
2022-12-23T05:45:07.431Z,8.93
2022-12-23T05:48:10.215Z,8.05
2022-12-23T05:51:14.317Z,8.10
2022-12-23T05:54:17.050Z,7.40
2022-12-23T05:57:19.682Z,7.85
2022-12-23T06:00:22.871Z,8.30
2022-12-23T06:03:25.967Z,8.07
2022-12-23T06:06:30.179Z,9.80
2022-12-23T06:09:32.880Z,8.07
2022-12-23T06:12:35.701Z,7.00
2022-12-23T06:15:38.453Z,8.23
2022-12-23T06:18:41.319Z,6.20
2022-12-23T06:21:45.484Z,6.75
2022-12-23T06:24:48.384Z,7.47
2022-12-23T06:27:51.127Z,8.30
2022-12-23T06:30:54.705Z,8.15
2022-12-23T06:33:57.464Z,9.70
2022-12-23T06:37:01.480Z,8.35
2022-12-23T06:40:04.520Z,9.18
2022-12-23T06:43:07.155Z,8.15
2022-12-23T06:46:09.895Z,9.88
2022-12-23T06:49:13.665Z,8.18
2022-12-23T06:52:18.289Z,6.80
2022-12-23T06:55:20.953Z,8.50
2022-12-23T06:58:23.612Z,9.10
2022-12-23T07:01:26.478Z,10.07
2022-12-23T07:04:29.358Z,10.07
2022-12-23T07:07:33.527Z,11.63
2022-12-23T07:10:36.276Z,11.65
2022-12-23T07:13:40.101Z,12.15
2022-12-23T07:16:42.933Z,12.50
2022-12-23T07:19:45.729Z,10.77
2022-12-23T07:22:50.857Z,13.02
2022-12-23T07:25:55.814Z,10.60
2022-12-23T07:28:58.517Z,11.63
2022-12-23T07:32:02.716Z,12.30
2022-12-23T07:35:06.146Z,13.13
2022-12-23T07:38:10.287Z,12.00
2022-12-23T07:41:12.906Z,14.23
2022-12-23T07:44:15.679Z,13.20
2022-12-23T07:47:18.355Z,15.55
2022-12-23T07:50:21.053Z,17.70
2022-12-23T07:53:25.090Z,15.98
2022-12-23T07:56:27.734Z,17.42
2022-12-23T07:59:30.408Z,19.00
2022-12-23T08:02:33.278Z,19.15
2022-12-23T08:05:36.103Z,18.50
2022-12-23T08:08:40.422Z,16.02
2022-12-23T08:11:43.083Z,14.02
2022-12-23T08:14:45.851Z,13.57
2022-12-23T08:17:48.572Z,13.15
2022-12-23T08:20:57.456Z,13.68
2022-12-23T08:24:01.477Z,15.30
2022-12-23T08:27:04.167Z,16.23
2022-12-23T08:30:09.538Z,14.10
2022-12-23T08:33:12.219Z,13.43
2022-12-23T08:36:22.205Z,17.23
2022-12-23T08:39:27.057Z,13.82
2022-12-23T08:42:29.670Z,17.15
2022-12-23T08:45:32.275Z,16.10
2022-12-23T08:48:35.090Z,15.50
2022-12-23T08:51:37.982Z,15.73
2022-12-23T08:54:41.980Z,13.95
2022-12-23T08:57:44.630Z,13.75
2022-12-23T09:00:47.359Z,15.25
2022-12-23T09:03:50.787Z,13.13
2022-12-23T09:06:53.495Z,13.70
2022-12-23T09:09:57.559Z,10.93
2022-12-23T09:13:00.273Z,11.73
2022-12-23T09:16:03.009Z,12.18
2022-12-23T09:19:05.697Z,12.20
2022-12-23T09:22:09.392Z,12.23
2022-12-23T09:25:14.855Z,14.88
2022-12-23T09:28:17.544Z,11.27
2022-12-23T09:31:20.404Z,9.07
2022-12-23T09:34:23.158Z,11.40
2022-12-23T09:37:25.904Z,12.25
2022-12-23T09:40:30.303Z,8.38
2022-12-23T09:43:37.252Z,8.13
2022-12-23T09:46:41.965Z,8.98
2022-12-23T09:49:46.613Z,9.48
2022-12-23T09:52:54.807Z,8.82
2022-12-23T09:56:01.259Z,8.45
2022-12-23T09:59:07.717Z,10.85
2022-12-23T10:02:15.069Z,10.88
2022-12-23T10:08:25.781Z,13.13
2022-12-23T10:11:31.398Z,14.30
2022-12-23T10:14:34.078Z,15.95
2022-12-23T10:17:39.383Z,18.50
2022-12-23T10:20:50.019Z,16.88
2022-12-23T10:23:53.679Z,17.13
2022-12-23T10:27:00.755Z,19.48
2022-12-23T10:30:26.459Z,17.90
2022-12-23T10:33:32.350Z,17.45
2022-12-23T10:36:40.127Z,22.38
2022-12-23T10:39:46.429Z,19.42
2022-12-23T10:42:54.095Z,22.83
2022-12-23T10:45:58.533Z,22.25
2022-12-23T10:49:03.589Z,28.05
2022-12-23T10:52:07.463Z,21.63
2022-12-23T10:55:16.273Z,20.50
2022-12-23T10:58:20.338Z,21.42
2022-12-23T11:01:27.166Z,19.13
2022-12-23T11:04:33.086Z,20.88
2022-12-23T11:07:45.178Z,18.23
2022-12-23T11:10:48.567Z,18.15
2022-12-23T11:13:52.823Z,16.75
2022-12-23T11:16:55.729Z,15.05
2022-12-23T11:20:09.582Z,15.10
2022-12-23T11:23:27.589Z,13.10
2022-12-23T11:29:35.310Z,15.50
2022-12-23T11:32:38.024Z,19.88
2022-12-23T11:35:40.725Z,18.70
2022-12-23T11:38:49.229Z,19.48
2022-12-23T11:41:53.220Z,21.63
2022-12-23T11:44:59.152Z,18.90
2022-12-23T11:48:01.829Z,17.45
2022-12-23T11:51:06.199Z,16.63
2022-12-23T11:54:15.962Z,18.80
2022-12-23T11:57:19.997Z,15.18
2022-12-23T12:00:26.102Z,17.83
2022-12-23T12:03:29.828Z,18.13
2022-12-23T12:06:32.685Z,18.50
2022-12-23T12:09:35.432Z,19.48
2022-12-23T12:12:38.191Z,16.52
2022-12-23T12:15:44.607Z,19.52
2022-12-23T12:18:53.665Z,18.83
2022-12-23T12:22:00.008Z,20.50
2022-12-23T12:25:12.978Z,19.67
2022-12-23T12:28:18.413Z,20.20
2022-12-23T12:31:24.990Z,18.45
2022-12-23T12:34:35.974Z,20.47
2022-12-23T12:37:42.088Z,21.33
2022-12-23T12:40:46.642Z,22.13
2022-12-23T12:43:52.030Z,22.83
2022-12-23T12:46:58.228Z,22.33
2022-12-23T12:50:01.997Z,23.45
2022-12-23T12:53:10.182Z,21.63
2022-12-23T12:56:14.863Z,24.85
2022-12-23T12:59:18.727Z,20.23
2022-12-23T13:02:31.721Z,21.90
2022-12-23T13:05:53.830Z,24.90
2022-12-23T13:09:02.449Z,18.58
2022-12-23T13:12:06.816Z,19.90
2022-12-23T13:15:15.321Z,18.73
2022-12-23T13:18:28.341Z,18.13
2022-12-23T13:21:33.786Z,21.02
2022-12-23T13:24:39.219Z,13.23
2022-12-23T13:27:45.315Z,20.00
2022-12-23T13:30:49.823Z,18.42
2022-12-23T13:33:56.020Z,8.68
2022-12-23T13:37:01.912Z,15.32
2022-12-23T13:40:10.285Z,12.25
2022-12-23T13:43:20.088Z,14.25
2022-12-23T13:46:26.344Z,15.05
2022-12-23T13:49:44.388Z,15.90
2022-12-23T13:52:56.392Z,12.45
2022-12-23T13:56:04.575Z,13.18
2022-12-23T13:59:09.738Z,12.43
2022-12-23T14:02:44.634Z,10.85
2022-12-23T14:05:50.468Z,17.08
2022-12-23T14:08:53.401Z,12.05
2022-12-23T14:12:00.969Z,12.30
2022-12-23T14:15:29.320Z,13.63
2022-12-23T14:18:49.197Z,14.48
2022-12-23T14:22:02.331Z,13.82
2022-12-23T14:25:44.432Z,9.48
2022-12-23T14:29:07.670Z,14.38
2022-12-23T14:32:20.250Z,13.07
2022-12-23T14:35:28.876Z,13.55
2022-12-23T14:41:39.705Z,11.98
2022-12-23T14:44:49.163Z,12.15
2022-12-23T14:47:52.016Z,10.23
2022-12-23T14:50:57.847Z,8.73
2022-12-23T14:54:15.474Z,7.18
2022-12-23T14:57:19.546Z,8.55
2022-12-23T15:00:22.265Z,10.07
2022-12-23T15:03:25.018Z,7.45
2022-12-23T15:06:33.142Z,11.25
2022-12-23T15:09:39.540Z,7.78
2022-12-23T15:12:47.327Z,5.00
2022-12-23T15:15:58.977Z,6.20
2022-12-23T15:19:20.036Z,7.32
2022-12-23T15:22:31.923Z,6.28
2022-12-23T15:25:36.958Z,7.18
2022-12-23T15:28:41.743Z,8.00
2022-12-23T15:31:47.378Z,8.38
2022-12-23T15:34:50.192Z,7.97
2022-12-23T15:37:52.892Z,7.03
2022-12-23T15:40:59.793Z,7.55
2022-12-23T15:44:02.450Z,8.52
2022-12-23T15:47:23.267Z,7.55
2022-12-23T15:50:26.003Z,7.10
2022-12-23T15:53:30.328Z,9.60
2022-12-23T15:56:35.316Z,9.63
2022-12-23T15:59:38.828Z,9.82
2022-12-23T16:03:01.538Z,10.25
2022-12-23T16:06:10.597Z,10.77
2022-12-23T16:09:24.985Z,11.55
2022-12-23T16:12:29.140Z,10.95
2022-12-23T16:15:32.854Z,11.38
2022-12-23T16:18:36.253Z,12.55
2022-12-23T16:21:38.854Z,11.65
2022-12-23T16:24:45.056Z,10.80
2022-12-23T16:27:49.801Z,9.85
2022-12-23T16:30:53.254Z,10.82
2022-12-23T16:33:56.732Z,10.15
2022-12-23T16:36:59.340Z,7.32
2022-12-23T16:40:02.287Z,5.38
2022-12-23T16:43:06.320Z,5.65
2022-12-23T16:46:09.383Z,2.63
2022-12-23T16:49:15.382Z,2.97
2022-12-23T16:52:18.156Z,1.98
2022-12-23T16:55:21.173Z,1.70
2022-12-23T16:58:25.450Z,1.50
2022-12-23T17:01:29.375Z,1.90
2022-12-23T17:04:32.103Z,1.73
2022-12-23T17:07:38.720Z,2.83
2022-12-23T17:10:44.874Z,1.40
2022-12-23T17:13:49.090Z,1.50
2022-12-23T17:16:52.190Z,2.33
2022-12-23T17:19:56.205Z,1.40
2022-12-23T17:23:03.456Z,2.53
2022-12-23T17:26:06.438Z,2.75
2022-12-23T17:29:12.419Z,3.47
2022-12-23T17:32:16.002Z,2.90
2022-12-23T17:35:19.949Z,5.38
2022-12-23T17:38:22.905Z,6.63
2022-12-23T17:41:27.736Z,6.53
2022-12-23T17:44:31.890Z,6.72
2022-12-23T17:47:34.681Z,6.30
2022-12-23T17:50:37.341Z,7.03
2022-12-23T17:53:40.140Z,8.38
2022-12-23T17:56:45.989Z,7.82
2022-12-23T17:59:50.473Z,6.40
2022-12-23T18:02:53.290Z,9.07
2022-12-23T18:06:01.771Z,7.30
2022-12-23T18:09:05.036Z,7.95
2022-12-23T18:12:08.077Z,7.88
2022-12-23T18:15:20.509Z,7.90
2022-12-23T18:18:32.123Z,5.45
2022-12-23T18:21:38.148Z,5.80
2022-12-23T18:24:40.797Z,6.38
2022-12-23T18:27:43.536Z,6.45
2022-12-23T18:30:47.561Z,7.13
2022-12-23T18:33:50.360Z,5.95
2022-12-23T18:36:53.126Z,6.90
2022-12-23T18:39:55.934Z,5.85
2022-12-23T18:42:58.634Z,8.43
2022-12-23T18:46:02.720Z,7.35
2022-12-23T18:49:05.507Z,7.40
2022-12-23T18:52:10.207Z,5.68
2022-12-23T18:55:12.964Z,7.65
2022-12-23T18:58:15.930Z,7.15
2022-12-23T19:01:19.982Z,6.10
2022-12-23T19:04:22.775Z,5.85
2022-12-23T19:07:25.447Z,5.80
2022-12-23T19:10:29.289Z,7.82
2022-12-23T19:13:33.192Z,7.22
2022-12-23T19:16:37.374Z,7.93
2022-12-23T19:19:40.513Z,9.27
2022-12-23T19:22:43.436Z,6.35
2022-12-23T19:25:54.561Z,7.00
2022-12-23T19:28:57.740Z,7.35
2022-12-23T19:32:01.891Z,6.07
2022-12-23T19:35:04.671Z,6.05
2022-12-23T19:38:07.545Z,7.53
2022-12-23T19:41:10.330Z,5.32
2022-12-23T19:44:13.233Z,4.85
2022-12-23T19:47:17.419Z,4.05
2022-12-23T19:50:22.136Z,5.95
2022-12-23T19:53:24.933Z,4.38
2022-12-23T19:56:29.375Z,4.10
2022-12-23T19:59:32.112Z,3.17
2022-12-23T20:02:36.648Z,3.38
2022-12-23T20:05:40.104Z,4.18
2022-12-23T20:08:45.659Z,4.30
2022-12-23T20:11:49.036Z,4.95
2022-12-23T20:14:51.732Z,3.80
2022-12-23T20:17:55.758Z,4.28
2022-12-23T20:20:59.547Z,3.00
2022-12-23T20:24:02.390Z,3.13
2022-12-23T20:27:09.528Z,3.22
2022-12-23T20:30:14.400Z,3.45
2022-12-23T20:33:18.568Z,2.92
2022-12-23T20:36:22.644Z,3.20
2022-12-23T20:39:25.368Z,3.90
2022-12-23T20:42:28.172Z,2.50
2022-12-23T20:45:30.865Z,4.32
2022-12-23T20:48:35.115Z,3.05
2022-12-23T20:51:37.857Z,2.33
2022-12-23T20:54:40.566Z,2.33
2022-12-23T20:57:45.363Z,3.72
2022-12-23T21:00:48.382Z,3.42
2022-12-23T21:03:53.092Z,3.05
2022-12-23T21:06:55.918Z,3.10
2022-12-23T21:09:58.802Z,2.20
2022-12-23T21:13:01.511Z,2.65
2022-12-23T21:16:04.532Z,3.40
2022-12-23T21:19:09.692Z,2.67
2022-12-23T21:22:12.492Z,2.50
2022-12-23T21:25:17.658Z,3.00
2022-12-23T21:28:20.335Z,3.50
2022-12-23T21:31:23.907Z,2.45
2022-12-23T21:34:28.076Z,3.13
2022-12-23T21:37:30.750Z,2.88
2022-12-23T21:40:33.418Z,2.92
2022-12-23T21:43:36.239Z,2.35
2022-12-23T21:46:39.010Z,3.28
2022-12-23T21:49:44.194Z,3.63
2022-12-23T21:52:46.955Z,3.03
2022-12-23T21:55:49.724Z,2.95
2022-12-23T21:58:55.961Z,2.75
2022-12-23T22:01:58.724Z,3.40
2022-12-23T22:05:03.690Z,3.60
2022-12-23T22:08:07.087Z,3.70
2022-12-23T22:11:10.345Z,3.38
2022-12-23T22:14:14.433Z,4.95
2022-12-23T22:17:17.168Z,3.28
2022-12-23T22:20:21.329Z,2.70
2022-12-23T22:23:24.048Z,3.42
2022-12-23T22:26:27.728Z,3.72
2022-12-23T22:29:30.402Z,2.85
2022-12-23T22:32:36.553Z,4.15
2022-12-23T22:35:43.209Z,5.03
2022-12-23T22:38:45.906Z,4.53
2022-12-23T22:41:48.711Z,4.40
2022-12-23T22:44:51.408Z,4.68
2022-12-23T22:47:54.231Z,4.15
2022-12-23T22:51:03.915Z,5.05
2022-12-23T22:54:06.718Z,4.28
2022-12-23T22:57:11.129Z,4.18
2022-12-23T23:00:14.566Z,3.42
2022-12-23T23:03:17.325Z,4.45
2022-12-23T23:06:21.471Z,3.58
2022-12-23T23:09:24.219Z,4.50
2022-12-23T23:12:27.002Z,3.55
2022-12-23T23:15:29.799Z,5.35
2022-12-23T23:18:32.518Z,4.35
2022-12-23T23:21:37.680Z,4.80
2022-12-23T23:24:40.384Z,6.43
2022-12-23T23:27:42.985Z,5.88
2022-12-23T23:30:45.660Z,5.13
2022-12-23T23:33:48.327Z,4.43
2022-12-23T23:36:52.479Z,3.60
2022-12-23T23:39:55.160Z,5.05
2022-12-23T23:43:00.443Z,4.97
2022-12-23T23:46:03.164Z,6.13
2022-12-23T23:49:06.157Z,4.50
2022-12-23T23:52:10.230Z,7.53
2022-12-23T23:55:12.909Z,7.05
2022-12-23T23:58:15.593Z,5.97
